Data for 05/17/2005

Time Sea-Level Adjusted Pressure Absolute Pressure Temperature Relative Humidity Dew Point   
(mb) (inHg) (mb) (inHg) (C) (F) (%) (C) (F)
00:05 998 29.47 827 24.42 13.6 56.4 65 7.3 45.1
00:10 998 29.47 827 24.42 13.5 56.3 68 7.7 45.9
00:15 998 29.47 827 24.42 13.4 56.1 69 7.9 46.2
00:20 998 29.47 827 24.42 13.2 55.8 74 8.8 47.8
00:25 998 29.47 827 24.42 13.1 55.5 78 9.3 48.7
00:30 998 29.47 827 24.42 12.9 55.2 80 9.5 49.1
00:35 998 29.47 827 24.42 12.7 54.9 81 9.5 49.1
00:40 998 29.47 827 24.42 12.5 54.6 82 9.5 49.1
00:45 998 29.47 827 24.42 12.5 54.5 81 9.4 48.9
00:50 998 29.47 828 24.45 12.5 54.6 82 9.5 49.2
00:55 998 29.47 828 24.45 12.5 54.4 82 9.6 49.2
01:00 998 29.47 828 24.45 12.4 54.4 83 9.6 49.3
01:05 998 29.47 828 24.45 12.4 54.2 83 9.7 49.4
01:10 999 29.5 828 24.45 12.3 54.1 84 9.7 49.4
01:15 998 29.47 828 24.45 12.3 54.1 85 9.8 49.6
01:20 999 29.5 828 24.45 12.1 53.8 86 9.8 49.7
01:25 999 29.5 828 24.45 12.1 53.8 86 9.8 49.6
01:30 999 29.5 828 24.45 11.8 53.2 87 9.8 49.6
01:35 999 29.5 828 24.45 11.8 53.2 87 9.7 49.4
01:40 999 29.5 828 24.45 11.8 53.3 86 9.6 49.4
01:45 999 29.5 828 24.45 11.7 53.1 88 9.8 49.6
01:50 999 29.5 828 24.45 11.6 52.9 88 9.6 49.3
01:55 999 29.5 828 24.45 11.7 53 86 9.4 48.9
02:00 999 29.5 828 24.45 11.7 53.1 85 9.3 48.8
02:05 999 29.5 828 24.45 11.9 53.3 84 9.2 48.6
02:10 999 29.5 828 24.45 11.9 53.3 84 9.2 48.6
02:15 999 29.5 828 24.45 11.7 53 85 9.3 48.7
02:20 999 29.5 828 24.45 11.5 52.8 85 9.2 48.5
02:25 999 29.5 829 24.48 11.7 53 84 9.1 48.5
02:30 999 29.5 829 24.48 11.8 53.3 84 9.2 48.5
02:35 999 29.5 829 24.48 11.8 53.3 83 9 48.2
02:40 999 29.5 829 24.48 11.9 53.4 81 8.8 47.9
02:45 999 29.5 828 24.45 12 53.7 73 7.3 45.1
02:50 999 29.5 828 24.45 12.4 54.3 72 7.6 45.7
02:55 999 29.5 828 24.45 12.6 54.7 71 7.5 45.5
03:00 999 29.5 828 24.45 12.7 54.8 73 8 46.4
03:05 999 29.5 829 24.48 12.2 53.9 84 9.6 49.3
03:10 1000 29.53 829 24.48 11.6 52.9 86 9.3 48.8
03:15 1000 29.53 829 24.48 11.5 52.8 86 9.3 48.7
03:20 1000 29.53 829 24.48 11.5 52.7 87 9.4 48.9
03:25 1000 29.53 829 24.48 11.4 52.4 88 9.4 48.9
03:30 1000 29.53 829 24.48 11.2 52.2 87 9.1 48.4
03:35 1000 29.53 829 24.48 11.2 52.1 84 8.6 47.6
03:40 1000 29.53 829 24.48 10.9 51.6 84 8.3 47
03:45 1000 29.53 830 24.51 10.7 51.2 80 7.4 45.4
03:50 1001 29.56 830 24.51 10.4 50.8 79 7.1 44.7
03:55 1001 29.56 830 24.51 10.3 50.5 77 6.5 43.7
04:00 1001 29.56 830 24.51 10.2 50.4 72 5.4 41.7
04:05 1001 29.56 830 24.51 9.3 48.8 76 5.4 41.7
04:10 1001 29.56 830 24.51 8.5 47.3 86 6.2 43.2
04:15 1001 29.56 831 24.54 7.6 45.7 91 6.2 43.2
04:20 1002 29.59 831 24.54 7.4 45.3 92 6.2 43.2
04:25 1002 29.59 831 24.54 7.4 45.3 89 5.6 42.2
04:30 1002 29.59 831 24.54 7.4 45.3 90 5.9 42.6
04:35 1002 29.59 831 24.54 7.4 45.2 89 5.6 42.2
04:40 1002 29.59 831 24.54 7.5 45.4 87 5.5 41.9
04:45 1002 29.59 831 24.54 7.4 45.4 88 5.5 41.9
04:50 1002 29.59 831 24.54 7.4 45.2 89 5.7 42.3
04:55 1002 29.59 831 24.54 7.2 45 88 5.4 41.7
05:00 1002 29.59 831 24.54 7.1 44.7 88 5.2 41.4
05:05 1002 29.59 831 24.54 7 44.6 86 4.9 40.9
05:10 1002 29.59 831 24.54 7.2 45 84 4.7 40.4
05:15 1002 29.59 831 24.54 7.3 45.2 82 4.4 39.9
05:20 1002 29.59 832 24.57 7.4 45.2 83 4.6 40.3
05:25 1003 29.62 832 24.57 7.3 45.1 83 4.5 40.1
05:30 1003 29.62 832 24.57 7.2 45 83 4.5 40.2
05:35 1003 29.62 832 24.57 7.1 44.7 84 4.6 40.2
05:40 1003 29.62 832 24.57 6.9 44.4 86 4.7 40.4
05:45 1003 29.62 832 24.57 6.8 44.3 86 4.7 40.4
05:50 1003 29.62 832 24.57 6.7 44.1 87 4.7 40.5
05:55 1003 29.62 832 24.57 6.7 44 87 4.6 40.3
06:00 1003 29.62 832 24.57 6.6 43.8 87 4.6 40.2
06:05 1003 29.62 832 24.57 6.5 43.7 85 4.2 39.6
06:10 1003 29.62 832 24.57 6.5 43.7 83 3.8 38.8
06:15 1003 29.62 832 24.57 6.5 43.8 81 3.6 38.5
06:20 1003 29.62 833 24.6 6.6 43.9 79 3.2 37.8
06:25 1004 29.65 833 24.6 6.6 43.9 79 3.3 38
06:30 1004 29.65 833 24.6 6.7 44 80 3.4 38.1
06:35 1004 29.65 833 24.6 6.6 43.9 80 3.4 38.2
06:40 1004 29.65 833 24.6 6.6 43.8 79 3.2 37.8
06:45 1004 29.65 833 24.6 6.5 43.7 81 3.5 38.2
06:50 1004 29.65 833 24.6 6.1 43 83 3.5 38.3
06:55 1004 29.65 833 24.6 5.9 42.6 85 3.6 38.4
07:00 1004 29.65 833 24.6 5.8 42.5 85 3.5 38.3
07:05 1004 29.65 833 24.6 5.8 42.4 84 3.3 38
07:10 1004 29.65 833 24.6 5.8 42.4 86 3.6 38.4
07:15 1004 29.65 833 24.6 5.7 42.3 87 3.7 38.7
07:20 1004 29.65 833 24.6 5.5 42 86 3.4 38.1
07:25 1004 29.65 833 24.6 5.5 42 86 3.4 38.1
07:30 1004 29.65 833 24.6 5.5 41.9 86 3.3 37.9
07:35 1004 29.65 833 24.6 5.6 42.1 84 3.2 37.7
07:40 1004 29.65 834 24.63 5.7 42.3 84 3.2 37.8
07:45 1005 29.68 834 24.63 5.8 42.5 83 3.2 37.7
07:50 1005 29.68 834 24.63 5.8 42.4 82 3 37.4
07:55 1005 29.68 834 24.63 5.8 42.5 82 2.9 37.3
08:00 1005 29.68 834 24.63 5.9 42.6 81 2.9 37.3
08:05 1005 29.68 834 24.63 6 42.8 81 3.1 37.5
08:10 1005 29.68 834 24.63 6 42.8 83 3.4 38.1
08:15 1005 29.68 834 24.63 5.8 42.5 82 3 37.5
08:20 1005 29.68 834 24.63 6 42.8 80 2.8 37
08:25 1005 29.68 834 24.63 6.3 43.3 79 2.9 37.3
08:30 1005 29.68 834 24.63 6.6 43.8 78 3 37.3
08:35 1005 29.68 834 24.63 6.7 44.1 77 2.9 37.3
08:40 1005 29.68 834 24.63 6.8 44.2 76 2.8 37.1
08:45 1005 29.68 834 24.63 6.8 44.3 76 3 37.3
08:50 1005 29.68 834 24.63 7 44.6 75 2.9 37.2
08:55 1005 29.68 834 24.63 6.9 44.5 74 2.6 36.6
09:00 1005 29.68 834 24.63 7 44.6 73 2.6 36.7
09:05 1005 29.68 835 24.66 7.1 44.7 72 2.4 36.4
09:10 1005 29.68 835 24.66 7.1 44.8 72 2.4 36.3
09:15 1005 29.68 835 24.66 7.2 45 72 2.5 36.5
09:20 1006 29.71 835 24.66 7.3 45.2 71 2.5 36.4
09:25 1006 29.71 835 24.66 7.3 45.2 71 2.4 36.3
09:30 1006 29.71 835 24.66 7.4 45.3 71 2.5 36.4
09:35 1006 29.71 835 24.66 7.4 45.3 70 2.2 36
09:40 1006 29.71 835 24.66 7.5 45.5 71 2.5 36.5
09:45 1006 29.71 835 24.66 7.6 45.7 68 2.1 35.9
09:50 1006 29.71 835 24.66 7.7 45.8 67 1.9 35.4
09:55 1006 29.71 835 24.66 7.7 45.9 67 2.1 35.7
10:00 1006 29.71 835 24.66 7.7 45.9 67 2.1 35.7
10:05 1006 29.71 835 24.66 7.8 46 68 2.2 36
10:10 1006 29.71 835 24.66 7.9 46.3 67 2.2 36
10:15 1006 29.71 835 24.66 8 46.4 67 2.3 36.2
10:20 1006 29.71 835 24.66 8 46.4 65 1.9 35.4
10:25 1006 29.71 835 24.66 8.1 46.5 63 1.4 34.6
10:30 1006 29.71 835 24.66 8.1 46.5 66 2.1 35.7
10:35 1006 29.71 835 24.66 7.9 46.2 67 2.3 36.1
10:40 1006 29.71 835 24.66 8 46.4 66 2.1 35.7
10:45 1006 29.71 835 24.66 8 46.3 67 2.3 36.2
10:50 1006 29.71 835 24.66 8.3 46.9 62 1.5 34.6
10:55 1006 29.71 835 24.66 8.5 47.3 59 1 33.8
11:00 1006 29.71 835 24.66 8.5 47.3 59 1 33.8
11:05 1006 29.71 835 24.66 8.6 47.4 58 0.7 33.3
11:10 1006 29.71 835 24.66 8.6 47.5 58 0.9 33.6
11:15 1006 29.71 835 24.66 8.7 47.7 59 1.1 34
11:20 1006 29.71 835 24.66 8.9 48 58 1 33.9
11:25 1006 29.71 835 24.66 9.1 48.3 56 0.9 33.6
11:30 1006 29.71 835 24.66 9.4 48.9 56 1 33.8
11:35 1006 29.71 835 24.66 9.7 49.5 55 1 33.9
11:40 1006 29.71 835 24.66 9.5 49 53 0.5 33
11:45 1006 29.71 835 24.66 9.4 48.9 54 0.7 33.3
11:50 1006 29.71 835 24.66 9.6 49.2 54 0.8 33.5
11:55 1006 29.71 835 24.66 9.6 49.3 53 0.6 33.1
12:00 1006 29.71 835 24.66 9.6 49.3 54 0.7 33.2
12:05 1006 29.71 835 24.66 9.8 49.6 54 0.9 33.6
12:10 1006 29.71 835 24.66 10.1 50.2 53 0.9 33.6
12:15 1006 29.71 835 24.66 10.1 50.3 52 0.7 33.3
12:20 1006 29.71 835 24.66 10.2 50.4 52 0.7 33.3
12:25 1006 29.71 835 24.66 10.3 50.5 51 0.6 33
12:30 1006 29.71 835 24.66 10.1 50.2 52 0.8 33.5
12:35 1006 29.71 835 24.66 10.2 50.3 51 0.6 33
12:40 1006 29.71 835 24.66 10.5 51 50 0.5 33
12:45 1006 29.71 835 24.66 10.5 50.9 50 0.5 32.8
12:50 1006 29.71 835 24.66 10.6 51 51 0.8 33.4
12:55 1006 29.71 835 24.66 10.6 51.1 49 0.4 32.7
13:00 1006 29.71 835 24.66 10.7 51.3 49 0.4 32.7
13:05 1006 29.71 835 24.66 10.9 51.6 48 0.3 32.6
13:10 1006 29.71 835 24.66 10.8 51.4 48 0.2 32.3
13:15 1006 29.71 835 24.66 11 51.7 48 0.5 32.9
13:20 1006 29.71 835 24.66 11.2 52.1 48 0.6 33.1
13:25 1006 29.71 835 24.66 11.1 51.9 48 0.5 32.9
13:30 1006 29.71 836 24.69 10.9 51.7 48 0.5 32.9
13:35 1006 29.71 836 24.69 11 51.7 48 0.4 32.7
13:40 1006 29.71 836 24.69 11.1 51.9 49 0.7 33.3
13:45 1006 29.71 836 24.69 11 51.8 47 0.3 32.5
13:50 1007 29.74 836 24.69 11 51.8 48 0.5 32.8
13:55 1006 29.71 836 24.69 10.9 51.7 49 0.6 33.1
14:00 1006 29.71 836 24.69 11.1 51.9 49 1 33.7
14:05 1007 29.74 836 24.69 11 51.8 46 -0.1 31.8
14:10 1006 29.71 836 24.69 10.9 51.6 47 0.1 32.2
14:15 1006 29.71 836 24.69 10.9 51.6 48 0.2 32.4
14:20 1006 29.71 836 24.69 10.9 51.5 48 0.2 32.4
14:25 1007 29.74 836 24.69 10.9 51.6 48 0.3 32.5
14:30 1007 29.74 836 24.69 11 51.9 45 -0.4 31.2
14:35 1007 29.74 836 24.69 11.2 52.1 45 -0.3 31.5
14:40 1007 29.74 836 24.69 11.4 52.6 45 0 32.1
14:45 1007 29.74 836 24.69 11.6 52.8 46 0.2 32.4
14:50 1007 29.74 836 24.69 11.6 52.8 47 0.6 33.1
14:55 1007 29.74 836 24.69 11.6 52.9 45 0.1 32.2
15:00 1007 29.74 836 24.69 11.6 52.9 45 0.2 32.3
15:05 1007 29.74 836 24.69 11.5 52.6 44 -0.3 31.5
15:10 1007 29.74 836 24.69 11.5 52.7 44 -0.2 31.7
15:15 1007 29.74 836 24.69 11.3 52.4 48 0.8 33.4
15:20 1007 29.74 836 24.69 11.3 52.3 49 0.9 33.7
15:25 1007 29.74 836 24.69 11.2 52.2 51 1.4 34.6
15:30 1007 29.74 836 24.69 11.3 52.4 48 0.8 33.4
15:35 1007 29.74 836 24.69 11.3 52.3 49 0.9 33.6
15:40 1007 29.74 836 24.69 11.3 52.3 48 0.8 33.4
15:45 1007 29.74 836 24.69 11.4 52.4 47 0.4 32.7
15:50 1007 29.74 836 24.69 11.3 52.4 48 0.8 33.4
15:55 1007 29.74 836 24.69 11.5 52.7 46 0.2 32.4
16:00 1007 29.74 836 24.69 11.5 52.8 45 0.2 32.3
16:05 1007 29.74 837 24.72 11.3 52.4 47 0.5 32.9
16:10 1007 29.74 837 24.72 11.3 52.4 48 0.7 33.3
16:15 1007 29.74 837 24.72 11.3 52.4 47 0.5 33
16:20 1007 29.74 837 24.72 11.5 52.7 47 0.5 32.9
16:25 1007 29.74 837 24.72 11.5 52.6 47 0.5 32.9
16:30 1007 29.74 837 24.72 11.5 52.6 46 0.3 32.6
16:35 1008 29.77 837 24.72 11.4 52.5 47 0.5 33
16:40 1008 29.77 837 24.72 11.3 52.4 47 0.5 32.9
16:45 1008 29.77 837 24.72 11.3 52.3 47 0.5 32.9
16:50 1007 29.74 837 24.72 11.5 52.6 47 0.5 33
16:55 1007 29.74 837 24.72 11.6 52.9 46 0.5 32.9
17:00 1007 29.74 837 24.72 11.6 53 46 0.6 33.1
17:05 1008 29.77 837 24.72 11.6 52.9 46 0.4 32.7
17:10 1008 29.77 837 24.72 11.5 52.8 48 0.9 33.7
17:15 1008 29.77 837 24.72 11.5 52.7 48 1 33.8
17:20 1008 29.77 837 24.72 11.5 52.6 49 1.1 34
17:25 1008 29.77 837 24.72 11.7 53.1 49 1.4 34.4
17:30 1008 29.77 837 24.72 11.9 53.4 48 1.4 34.5
17:35 1008 29.77 837 24.72 11.8 53.3 48 1.1 33.9
17:40 1008 29.77 837 24.72 11.9 53.3 47 1 33.8
17:45 1008 29.77 837 24.72 12.1 53.9 45 0.7 33.3
17:50 1008 29.77 837 24.72 12.5 54.5 45 0.8 33.5
17:55 1008 29.77 837 24.72 12.9 55.2 43 0.6 33.1
18:00 1008 29.77 837 24.72 12.2 54 46 1 33.8
18:05 1008 29.77 837 24.72 12.2 53.9 44 0.4 32.7
18:10 1008 29.77 837 24.72 12.3 54.2 46 1.2 34.2
18:15 1008 29.77 837 24.72 12.4 54.3 45 1 33.7
18:20 1008 29.77 837 24.72 12.5 54.5 44 0.6 33.1
18:25 1008 29.77 837 24.72 12.9 55.1 41 0 32.1
18:30 1008 29.77 837 24.72 13.2 55.7 39 -0.3 31.4
18:35 1008 29.77 837 24.72 13.4 56 40 0.1 32.1
18:40 1008 29.77 837 24.72 13.6 56.6 38 -0.2 31.7
18:45 1008 29.77 837 24.72 13.5 56.3 39 -0 32
18:50 1008 29.77 837 24.72 13.4 56.1 40 0.3 32.5
18:55 1008 29.77 837 24.72 13.3 56 40 0.1 32.2
19:00 1008 29.77 837 24.72 13.1 55.7 40 -0.1 31.8
19:05 1008 29.77 837 24.72 13.1 55.6 40 -0.1 31.8
19:10 1008 29.77 837 24.72 12.9 55.2 42 0.2 32.4
19:15 1008 29.77 837 24.72 12.6 54.6 43 0.3 32.6
19:20 1008 29.77 837 24.72 12.5 54.6 42 0 32
19:25 1008 29.77 837 24.72 12.3 54.2 43 0.3 32.5
19:30 1008 29.77 837 24.72 12.3 54.1 43 0.1 32.1
19:35 1008 29.77 837 24.72 12.3 54.1 45 0.6 33.2
19:40 1008 29.77 837 24.72 12.1 53.7 44 0.3 32.5
19:45 1008 29.77 837 24.72 12 53.6 45 0.4 32.8
19:50 1008 29.77 837 24.72 12.1 53.8 45 0.5 32.9
19:55 1008 29.77 837 24.72 12.1 53.8 45 0.5 33
20:00 1008 29.77 837 24.72 12.1 53.7 45 0.7 33.2
20:05 1008 29.77 837 24.72 12 53.7 45 0.6 33
20:10 1008 29.77 837 24.72 12 53.5 46 0.7 33.2
20:15 1008 29.77 837 24.72 12 53.6 45 0.4 32.8
20:20 1008 29.77 837 24.72 12 53.6 46 0.8 33.5
20:25 1008 29.77 837 24.72 12 53.6 46 0.8 33.4
20:30 1008 29.77 837 24.72 11.8 53.2 46 0.7 33.3
20:35 1008 29.77 837 24.72 11.7 53.1 47 0.8 33.4
20:40 1008 29.77 837 24.72 11.6 52.9 48 0.9 33.6
20:45 1008 29.77 837 24.72 11.4 52.4 48 0.8 33.4
20:50 1008 29.77 837 24.72 11.3 52.3 51 1.5 34.7
20:55 1008 29.77 837 24.72 11.1 51.9 50 1 33.8
21:00 1008 29.77 837 24.72 10.9 51.6 50 0.8 33.5
21:05 1008 29.77 837 24.72 10.8 51.4 51 1 33.9
21:10 1008 29.77 838 24.75 10.6 51 52 1.1 34
21:15 1008 29.77 838 24.75 10.4 50.6 54 1.5 34.7
21:20 1008 29.77 838 24.75 10.2 50.3 53 1.2 34.1
21:25 1008 29.77 838 24.75 10.1 50.1 54 1.1 34
21:30 1008 29.77 838 24.75 9.9 49.9 53 0.9 33.6
21:35 1008 29.77 838 24.75 9.6 49.3 57 1.5 34.6
21:40 1008 29.77 838 24.75 9.1 48.3 58 1.3 34.3
21:45 1008 29.77 838 24.75 8.6 47.5 62 1.7 35.1
21:50 1008 29.77 838 24.75 8.2 46.7 64 1.8 35.2
21:55 1009 29.8 838 24.75 8.1 46.6 65 2 35.6
22:00 1009 29.8 838 24.75 7.9 46.2 67 2.1 35.8
22:05 1009 29.8 838 24.75 7.7 45.8 68 2.1 35.7
22:10 1009 29.8 838 24.75 7.4 45.2 68 1.9 35.5
22:15 1009 29.8 838 24.75 7.3 45.1 68 1.8 35.2
22:20 1009 29.8 838 24.75 7.4 45.2 68 1.8 35.2
22:25 1009 29.8 838 24.75 7.4 45.2 66 1.5 34.7
22:30 1009 29.8 838 24.75 7.6 45.7 66 1.6 34.9
22:35 1009 29.8 838 24.75 7.5 45.4 67 1.7 35
22:40 1009 29.8 838 24.75 7.4 45.3 65 1.4 34.5
22:45 1009 29.8 838 24.75 7.4 45.4 67 1.7 35
22:50 1009 29.8 838 24.75 7.3 45.2 67 1.6 34.9
22:55 1009 29.8 838 24.75 7.3 45.2 66 1.4 34.5
23:00 1009 29.8 838 24.75 7.2 45 66 1.3 34.3
23:05 1009 29.8 838 24.75 7 44.6 66 1 33.9
23:10 1009 29.8 838 24.75 7.2 44.9 66 1.2 34.1
23:15 1009 29.8 838 24.75 7.2 44.9 67 1.5 34.7
23:20 1009 29.8 838 24.75 6.8 44.3 69 1.6 34.9
23:25 1009 29.8 838 24.75 6.7 44 70 1.7 35
23:30 1009 29.8 838 24.75 6.7 44.1 70 1.6 34.9
23:35 1009 29.8 838 24.75 7 44.6 69 1.7 35
23:40 1009 29.8 838 24.75 7 44.5 68 1.6 34.8
23:45 1009 29.8 838 24.75 7.1 44.8 68 1.6 34.9
23:50 1009 29.8 838 24.75 7.2 45 67 1.5 34.6
23:55 1009 29.8 838 24.75 7.3 45.1 67 1.6 34.9
24:00 1009 29.8 838 24.75 7.5 45.4 64 1.1 34